createdAt,value
2018-09-25T00:05:23.917Z,2.20
2018-09-25T00:07:59.233Z,1.60
2018-09-25T00:10:33.993Z,2.10
2018-09-25T00:13:08.636Z,1.80
2018-09-25T00:15:43.489Z,2.10
2018-09-25T00:18:18.270Z,2.10
2018-09-25T00:20:55.241Z,2.00
2018-09-25T00:23:29.885Z,2.00
2018-09-25T00:26:04.742Z,2.10
2018-09-25T00:28:41.245Z,2.03
2018-09-25T00:31:15.999Z,2.10
2018-09-25T00:33:51.455Z,1.43
2018-09-25T00:36:26.247Z,1.97
2018-09-25T00:39:07.728Z,1.80
2018-09-25T00:41:42.407Z,1.87
2018-09-25T00:44:18.549Z,2.13
2018-09-25T00:46:53.464Z,1.83
2018-09-25T00:49:28.170Z,2.00
2018-09-25T00:54:50.856Z,1.93
2018-09-25T00:57:25.491Z,2.07
2018-09-25T01:00:00.263Z,1.80
2018-09-25T01:02:35.083Z,2.10
2018-09-25T01:05:09.776Z,2.00
2018-09-25T01:07:54.461Z,1.60
2018-09-25T01:10:29.310Z,2.10
2018-09-25T01:13:16.309Z,2.10
2018-09-25T01:15:51.294Z,1.80
2018-09-25T01:18:26.116Z,2.00
2018-09-25T01:21:00.795Z,2.10
2018-09-25T01:23:35.462Z,2.20
2018-09-25T01:29:08.686Z,2.50
2018-09-25T01:31:43.974Z,2.37
2018-09-25T01:34:18.796Z,1.83
2018-09-25T01:36:53.466Z,1.97
2018-09-25T01:39:30.630Z,2.07
2018-09-25T01:42:05.589Z,2.37
2018-09-25T01:44:40.295Z,2.10
2018-09-25T01:47:15.000Z,1.80
2018-09-25T01:49:49.703Z,1.90
2018-09-25T01:52:24.425Z,2.23
2018-09-25T01:54:59.118Z,2.00
2018-09-25T01:57:33.984Z,1.83
2018-09-25T02:00:08.786Z,2.27
2018-09-25T02:02:43.363Z,2.63
2018-09-25T02:05:18.308Z,2.10
2018-09-25T02:10:32.849Z,2.10
2018-09-25T02:13:08.018Z,1.90
2018-09-25T02:15:42.627Z,2.60
2018-09-25T02:18:18.755Z,2.53
2018-09-25T02:20:53.518Z,1.90
2018-09-25T02:23:28.267Z,2.40
2018-09-25T02:26:51.302Z,1.70
2018-09-25T02:29:26.060Z,1.80
2018-09-25T02:34:42.770Z,2.30
2018-09-25T02:37:17.565Z,2.37
2018-09-25T02:39:52.316Z,2.27
2018-09-25T02:42:27.125Z,2.00
2018-09-25T02:47:42.728Z,2.57
2018-09-25T02:50:17.473Z,2.37
2018-09-25T02:55:32.865Z,2.27
2018-09-25T02:58:07.575Z,2.13
2018-09-25T03:00:42.218Z,2.00
2018-09-25T03:03:16.907Z,2.57
2018-09-25T03:06:22.230Z,2.60
2018-09-25T03:08:56.908Z,2.23
2018-09-25T03:14:49.105Z,2.20
2018-09-25T03:17:25.526Z,2.37
2018-09-25T03:20:00.267Z,2.20
2018-09-25T03:22:35.039Z,2.37
2018-09-25T03:25:09.936Z,1.90
2018-09-25T03:27:44.668Z,2.27
2018-09-25T03:30:19.292Z,2.03
2018-09-25T03:32:53.902Z,2.37
2018-09-25T03:35:28.674Z,2.57
2018-09-25T03:38:03.315Z,2.23
2018-09-25T03:40:37.995Z,2.40
2018-09-25T03:43:12.843Z,2.10
2018-09-25T03:45:49.784Z,2.40
2018-09-25T03:48:25.030Z,2.33
2018-09-25T03:50:59.880Z,2.67
2018-09-25T03:53:34.643Z,2.30
2018-09-25T03:56:12.041Z,2.60
2018-09-25T03:58:46.972Z,2.30
2018-09-25T04:01:21.690Z,2.77
2018-09-25T04:03:56.631Z,2.90
2018-09-25T04:06:31.945Z,2.63
2018-09-25T04:09:06.705Z,2.80
2018-09-25T04:11:41.491Z,2.30
2018-09-25T04:14:16.497Z,2.90
2018-09-25T04:16:51.288Z,3.10
2018-09-25T04:19:27.027Z,3.00
2018-09-25T04:22:01.890Z,2.87
2018-09-25T04:24:37.118Z,3.43
2018-09-25T04:27:12.479Z,3.33
2018-09-25T04:29:47.340Z,3.40
2018-09-25T04:35:03.103Z,2.97
2018-09-25T04:37:37.879Z,3.10
2018-09-25T04:40:13.153Z,3.73
2018-09-25T04:42:47.907Z,3.57
2018-09-25T04:45:25.170Z,3.13
2018-09-25T04:48:00.442Z,3.23
2018-09-25T04:50:35.476Z,2.90
2018-09-25T04:53:10.517Z,2.93
2018-09-25T04:55:45.418Z,2.90
2018-09-25T04:58:21.837Z,2.70
2018-09-25T05:00:56.535Z,2.90
2018-09-25T05:03:31.198Z,3.37
2018-09-25T05:06:06.208Z,3.10
2018-09-25T05:11:21.013Z,3.40
2018-09-25T05:13:55.708Z,2.80
2018-09-25T05:16:30.694Z,3.23
2018-09-25T05:19:07.924Z,3.33
2018-09-25T05:21:42.651Z,3.70
2018-09-25T05:24:18.711Z,3.83
2018-09-25T05:26:53.516Z,3.80
2018-09-25T05:29:28.779Z,3.93
2018-09-25T05:32:03.470Z,3.23
2018-09-25T05:34:38.148Z,3.83
2018-09-25T05:37:13.421Z,3.33
2018-09-25T05:39:48.120Z,2.93
2018-09-25T05:42:22.875Z,3.27
2018-09-25T05:44:57.718Z,3.20
2018-09-25T05:47:32.901Z,3.60
2018-09-25T05:50:07.678Z,4.00
2018-09-25T05:52:43.068Z,3.50
2018-09-25T05:55:19.687Z,3.00
2018-09-25T05:57:54.590Z,4.93
2018-09-25T06:00:30.060Z,4.30
2018-09-25T06:03:05.022Z,4.87
2018-09-25T06:05:39.787Z,3.80
2018-09-25T06:08:14.753Z,3.63
2018-09-25T06:10:49.996Z,3.97
2018-09-25T06:13:24.986Z,4.20
2018-09-25T06:16:04.275Z,4.07
2018-09-25T06:18:39.156Z,3.90
2018-09-25T06:21:13.924Z,4.10
2018-09-25T06:26:29.294Z,4.43
2018-09-25T06:29:03.941Z,4.20
2018-09-25T06:31:39.156Z,3.90
2018-09-25T06:34:14.729Z,4.50
2018-09-25T06:37:18.508Z,3.90
2018-09-25T06:39:53.573Z,4.00
2018-09-25T06:42:28.717Z,4.77
2018-09-25T06:45:03.465Z,4.67
2018-09-25T06:47:46.359Z,4.97
2018-09-25T06:50:20.995Z,4.73
2018-09-25T06:53:00.071Z,5.67
2018-09-25T06:55:34.897Z,5.30
2018-09-25T06:58:11.007Z,5.67
2018-09-25T07:00:45.801Z,5.33
2018-09-25T07:03:20.609Z,5.87
2018-09-25T07:05:55.359Z,5.43
2018-09-25T07:08:30.148Z,5.90
2018-09-25T07:11:05.000Z,7.80
2018-09-25T07:13:39.664Z,8.00
2018-09-25T07:16:15.064Z,8.40
2018-09-25T07:18:50.319Z,7.10
2018-09-25T07:21:25.385Z,7.37
2018-09-25T07:24:00.259Z,5.53
2018-09-25T07:26:35.351Z,4.80
2018-09-25T07:29:12.810Z,4.60
2018-09-25T07:31:47.763Z,4.17
2018-09-25T07:34:22.976Z,5.00
2018-09-25T07:36:57.649Z,4.03
2018-09-25T07:39:32.851Z,4.20
2018-09-25T07:42:07.896Z,3.93
2018-09-25T07:44:42.730Z,4.00
2018-09-25T07:47:17.648Z,3.23
2018-09-25T07:49:52.451Z,4.23
2018-09-25T07:52:29.735Z,3.43
2018-09-25T07:55:04.837Z,3.97
2018-09-25T07:57:39.560Z,2.90
2018-09-25T08:00:16.942Z,3.00
2018-09-25T08:02:51.697Z,3.00
2018-09-25T08:08:14.225Z,2.57
2018-09-25T08:10:49.214Z,2.10
2018-09-25T08:13:25.332Z,2.77
2018-09-25T08:16:00.118Z,2.10
2018-09-25T08:18:35.187Z,2.40
2018-09-25T08:21:10.205Z,2.20
2018-09-25T08:23:44.869Z,1.83
2018-09-25T08:26:19.491Z,1.80
2018-09-25T08:28:54.961Z,2.20
2018-09-25T08:31:35.799Z,1.30
2018-09-25T08:34:11.025Z,1.93
2018-09-25T08:36:45.755Z,1.60
2018-09-25T08:39:22.931Z,1.63
2018-09-25T08:41:57.844Z,1.90
2018-09-25T08:44:33.087Z,1.30
2018-09-25T08:47:08.676Z,1.40
2018-09-25T08:49:43.788Z,1.10
2018-09-25T08:52:18.555Z,1.80
2018-09-25T08:54:53.813Z,1.50
2018-09-25T08:57:28.656Z,1.23
2018-09-25T09:00:03.452Z,1.40
2018-09-25T09:02:38.077Z,1.43
2018-09-25T09:05:12.827Z,1.30
2018-09-25T09:07:47.733Z,1.27
2018-09-25T09:10:23.861Z,1.47
2018-09-25T09:12:58.460Z,1.50
2018-09-25T09:15:33.998Z,1.27
2018-09-25T09:18:08.692Z,1.17
2018-09-25T09:20:43.508Z,1.33
2018-09-25T09:23:18.501Z,1.10
2018-09-25T09:25:54.578Z,1.13
2018-09-25T09:28:29.249Z,0.97
2018-09-25T09:31:07.413Z,1.00
2018-09-25T09:33:42.201Z,1.03
2018-09-25T09:36:16.854Z,1.10
2018-09-25T09:38:53.312Z,1.07
2018-09-25T09:41:28.892Z,1.50
2018-09-25T09:44:03.569Z,1.13
2018-09-25T09:46:38.483Z,1.10
2018-09-25T09:49:13.011Z,1.03
2018-09-25T09:51:49.143Z,1.33
2018-09-25T09:54:24.127Z,1.03
2018-09-25T09:56:58.846Z,1.30
2018-09-25T09:59:34.276Z,1.30
2018-09-25T10:02:08.931Z,1.30
2018-09-25T10:04:43.608Z,1.27
2018-09-25T10:07:18.459Z,1.50
2018-09-25T10:09:53.124Z,1.40
2018-09-25T10:12:28.166Z,1.20
2018-09-25T10:15:03.080Z,1.30
2018-09-25T10:17:38.358Z,1.10
2018-09-25T10:20:13.563Z,1.03
2018-09-25T10:22:48.402Z,0.97
2018-09-25T10:25:23.351Z,1.30
2018-09-25T10:27:59.616Z,1.30
2018-09-25T10:30:34.327Z,1.37
2018-09-25T10:33:10.602Z,1.43
2018-09-25T10:35:45.371Z,1.30
2018-09-25T10:38:20.491Z,1.30
2018-09-25T10:40:55.482Z,1.00
2018-09-25T10:46:11.974Z,1.10
2018-09-25T10:48:46.616Z,1.20
2018-09-25T10:51:21.377Z,0.90
2018-09-25T10:53:56.509Z,1.13
2018-09-25T10:56:31.652Z,1.00
2018-09-25T10:59:10.494Z,1.40
2018-09-25T11:01:45.344Z,1.10
2018-09-25T11:04:20.036Z,1.10
2018-09-25T11:06:54.700Z,1.17
2018-09-25T11:09:29.439Z,1.00
2018-09-25T11:12:04.258Z,1.00
2018-09-25T11:14:39.067Z,1.30
2018-09-25T11:17:14.793Z,1.10
2018-09-25T11:19:49.556Z,1.23
2018-09-25T11:22:24.588Z,0.90
2018-09-25T11:24:59.280Z,1.10
2018-09-25T11:27:34.014Z,1.20
2018-09-25T11:30:10.909Z,1.10
2018-09-25T11:32:45.711Z,0.90
2018-09-25T11:35:20.981Z,1.10
2018-09-25T11:37:55.621Z,0.90
2018-09-25T11:40:30.264Z,1.00
2018-09-25T11:43:04.917Z,1.10
2018-09-25T11:45:39.458Z,1.00
2018-09-25T11:50:53.750Z,1.00
2018-09-25T11:53:28.514Z,0.80
2018-09-25T11:56:04.538Z,1.00
2018-09-25T11:58:39.744Z,1.00
2018-09-25T12:01:14.421Z,1.00
2018-09-25T12:03:48.989Z,1.10
2018-09-25T12:06:23.467Z,0.90
2018-09-25T12:08:58.129Z,0.97
2018-09-25T12:11:32.812Z,1.07
2018-09-25T12:14:07.420Z,1.00
2018-09-25T12:16:43.432Z,1.20
2018-09-25T12:19:18.116Z,1.00
2018-09-25T12:21:52.708Z,0.90
2018-09-25T12:24:27.450Z,1.13
2018-09-25T12:27:01.980Z,1.20
2018-09-25T12:29:36.551Z,1.00
2018-09-25T12:32:11.366Z,1.00
2018-09-25T12:34:46.016Z,0.77
2018-09-25T12:37:20.654Z,1.07
2018-09-25T12:39:55.996Z,0.60
2018-09-25T12:42:30.775Z,0.60
2018-09-25T12:45:05.531Z,0.70
2018-09-25T12:47:41.621Z,0.80
2018-09-25T12:50:16.180Z,1.23
2018-09-25T12:52:50.889Z,0.90
2018-09-25T12:55:25.636Z,0.77
2018-09-25T12:58:01.415Z,0.97
2018-09-25T13:00:36.079Z,0.90
2018-09-25T13:03:10.882Z,0.67
2018-09-25T13:05:46.539Z,0.80
2018-09-25T13:08:21.228Z,0.93
2018-09-25T13:10:56.099Z,1.10
2018-09-25T13:13:30.720Z,0.80
2018-09-25T13:16:07.047Z,0.70
2018-09-25T13:18:41.819Z,1.00
2018-09-25T13:21:16.652Z,0.90
2018-09-25T13:23:51.853Z,0.93
2018-09-25T13:26:26.336Z,0.70
2018-09-25T13:29:01.118Z,0.90
2018-09-25T13:31:35.736Z,1.20
2018-09-25T13:34:11.608Z,0.90
2018-09-25T13:36:46.290Z,0.90
2018-09-25T13:42:43.266Z,0.70
2018-09-25T13:45:19.193Z,0.90
2018-09-25T13:47:54.500Z,1.23
2018-09-25T13:50:29.024Z,0.83
2018-09-25T13:53:04.159Z,0.90
2018-09-25T13:55:39.025Z,0.60
2018-09-25T13:58:13.556Z,0.80
2018-09-25T14:00:48.187Z,0.97
2018-09-25T14:03:23.461Z,0.80
2018-09-25T14:05:58.176Z,0.70
2018-09-25T14:08:33.105Z,0.80
2018-09-25T14:11:08.618Z,0.87
2018-09-25T14:13:43.329Z,0.90
2018-09-25T14:19:04.527Z,0.90
2018-09-25T14:21:39.318Z,0.70
2018-09-25T14:24:15.575Z,0.90
2018-09-25T14:26:50.590Z,0.63
2018-09-25T14:29:27.533Z,1.00
2018-09-25T14:32:02.225Z,1.00
2018-09-25T14:34:36.966Z,0.90
2018-09-25T14:37:11.554Z,0.90
2018-09-25T14:39:46.160Z,1.20
2018-09-25T14:42:23.865Z,0.80
2018-09-25T14:45:00.102Z,0.90
2018-09-25T14:47:36.520Z,0.90
2018-09-25T14:50:12.506Z,0.90
2018-09-25T14:56:54.077Z,0.97
2018-09-25T14:59:37.345Z,0.80
2018-09-25T15:02:12.182Z,0.93
2018-09-25T15:04:48.481Z,0.80
2018-09-25T15:07:23.268Z,0.90
2018-09-25T15:09:58.109Z,1.07
2018-09-25T15:12:49.554Z,0.90
2018-09-25T15:15:25.217Z,0.93
2018-09-25T15:17:59.860Z,0.90
2018-09-25T15:20:34.664Z,1.10
2018-09-25T15:23:09.267Z,1.10
2018-09-25T15:25:44.478Z,1.30
2018-09-25T15:28:19.533Z,1.10
2018-09-25T15:30:54.190Z,1.20
2018-09-25T15:33:28.944Z,0.80
2018-09-25T15:36:03.633Z,0.90
2018-09-25T15:38:44.143Z,1.00
2018-09-25T15:41:19.090Z,1.10
2018-09-25T15:43:53.933Z,1.00
2018-09-25T15:46:28.695Z,1.30
2018-09-25T15:49:03.410Z,1.00
2018-09-25T15:51:38.177Z,1.40
2018-09-25T15:54:12.923Z,1.10
2018-09-25T15:56:47.917Z,0.90
2018-09-25T15:59:22.628Z,1.03
2018-09-25T16:01:57.859Z,0.97
2018-09-25T16:04:32.416Z,1.07
2018-09-25T16:07:07.136Z,1.20
2018-09-25T16:12:21.608Z,1.30
2018-09-25T16:14:56.334Z,0.80
2018-09-25T16:17:31.386Z,1.00
2018-09-25T16:20:06.525Z,0.97
2018-09-25T16:22:46.512Z,1.00
2018-09-25T16:25:21.412Z,1.10
2018-09-25T16:27:56.170Z,1.00
2018-09-25T16:30:30.770Z,1.30
2018-09-25T16:33:05.763Z,0.97
2018-09-25T16:35:40.844Z,1.40
2018-09-25T16:38:15.230Z,1.10
2018-09-25T16:40:52.387Z,0.97
2018-09-25T16:43:27.376Z,1.40
2018-09-25T16:46:02.270Z,0.90
2018-09-25T16:48:36.998Z,0.70
2018-09-25T16:51:11.892Z,0.80
2018-09-25T16:53:47.698Z,1.20
2018-09-25T16:56:23.227Z,1.03
2018-09-25T16:58:58.080Z,1.20
2018-09-25T17:01:38.677Z,0.90
2018-09-25T17:04:13.879Z,0.70
2018-09-25T17:06:48.559Z,1.17
2018-09-25T17:09:24.127Z,0.97
2018-09-25T17:11:58.869Z,1.27
2018-09-25T17:14:33.583Z,1.00
2018-09-25T17:17:08.235Z,1.27
2018-09-25T17:19:42.870Z,1.00
2018-09-25T17:22:17.680Z,1.00
2018-09-25T17:24:54.774Z,1.30
2018-09-25T17:27:29.488Z,1.30
2018-09-25T17:30:04.282Z,1.40
2018-09-25T17:32:41.965Z,1.37
2018-09-25T17:35:16.889Z,1.17
2018-09-25T17:37:53.357Z,1.30
2018-09-25T17:40:35.413Z,1.10
2018-09-25T17:43:10.336Z,1.17
2018-09-25T17:45:45.498Z,1.10
2018-09-25T17:48:21.558Z,1.40
2018-09-25T17:50:59.131Z,1.20
2018-09-25T17:53:34.644Z,1.20
2018-09-25T17:56:09.802Z,1.80
2018-09-25T17:58:50.775Z,1.30
2018-09-25T18:01:28.744Z,1.33
2018-09-25T18:04:14.002Z,1.13
2018-09-25T18:09:35.663Z,2.07
2018-09-25T18:12:11.841Z,1.70
2018-09-25T18:14:46.982Z,1.37
2018-09-25T18:17:22.723Z,1.33
2018-09-25T18:19:58.348Z,1.30
2018-09-25T18:22:34.063Z,1.27
2018-09-25T18:25:10.134Z,1.10
2018-09-25T18:27:46.617Z,1.20
2018-09-25T18:30:21.325Z,1.20
2018-09-25T18:32:56.798Z,1.23
2018-09-25T18:38:11.486Z,1.43
2018-09-25T18:40:47.084Z,1.30
2018-09-25T18:43:21.877Z,1.20
2018-09-25T18:45:57.988Z,1.33
2018-09-25T18:48:32.654Z,1.33
2018-09-25T18:51:08.101Z,1.53
2018-09-25T18:53:42.809Z,1.70
2018-09-25T18:56:17.526Z,1.30
2018-09-25T18:58:52.286Z,1.23
2018-09-25T19:01:29.013Z,1.50
2018-09-25T19:04:03.644Z,1.30
2018-09-25T19:06:38.296Z,1.03
2018-09-25T19:09:15.930Z,1.43
2018-09-25T19:11:52.142Z,1.27
2018-09-25T19:14:26.786Z,1.20
2018-09-25T19:17:01.669Z,1.20
2018-09-25T19:19:36.324Z,1.20
2018-09-25T19:22:11.482Z,1.10
2018-09-25T19:25:10.692Z,1.37
2018-09-25T19:27:46.841Z,1.37
2018-09-25T19:30:23.233Z,1.30
2018-09-25T19:32:58.452Z,1.57
2018-09-25T19:35:33.451Z,1.43
2018-09-25T19:38:08.148Z,1.43
2018-09-25T19:40:43.732Z,1.53
2018-09-25T19:43:19.024Z,1.47
2018-09-25T19:45:56.147Z,1.50
2018-09-25T19:48:31.520Z,1.57
2018-09-25T19:51:06.783Z,1.80
2018-09-25T19:53:41.691Z,1.70
2018-09-25T19:56:16.475Z,1.80
2018-09-25T19:58:51.250Z,1.70
2018-09-25T20:01:27.423Z,1.53
2018-09-25T20:04:02.837Z,1.33
2018-09-25T20:09:17.916Z,1.40
2018-09-25T20:11:52.761Z,1.20
2018-09-25T20:14:42.773Z,1.67
2018-09-25T20:17:17.609Z,1.70
2018-09-25T20:19:53.644Z,1.50
2018-09-25T20:22:28.393Z,1.73
2018-09-25T20:25:02.989Z,1.67
2018-09-25T20:27:40.155Z,2.30
2018-09-25T20:30:16.691Z,1.43
2018-09-25T20:32:51.315Z,1.80
2018-09-25T20:35:25.913Z,1.90
2018-09-25T20:38:00.909Z,1.70
2018-09-25T20:40:36.500Z,1.53
2018-09-25T20:43:11.636Z,1.90
2018-09-25T20:45:46.271Z,1.60
2018-09-25T20:48:21.052Z,1.80
2018-09-25T20:50:56.185Z,1.60
2018-09-25T20:53:31.684Z,2.00
2018-09-25T20:56:07.451Z,2.10
2018-09-25T20:58:42.142Z,1.63
2018-09-25T21:01:17.095Z,1.60
2018-09-25T21:03:52.020Z,1.63
2018-09-25T21:06:28.890Z,1.43
2018-09-25T21:09:03.542Z,2.43
2018-09-25T21:11:38.441Z,1.50
2018-09-25T21:14:13.040Z,1.90
2018-09-25T21:16:48.824Z,1.57
2018-09-25T21:19:23.700Z,1.50
2018-09-25T21:21:58.484Z,1.77
2018-09-25T21:24:37.047Z,1.70
2018-09-25T21:27:12.256Z,1.70
2018-09-25T21:29:47.005Z,1.90
2018-09-25T21:32:21.694Z,1.47
2018-09-25T21:34:58.730Z,1.50
2018-09-25T21:37:33.594Z,1.60
2018-09-25T21:40:08.437Z,1.50
2018-09-25T21:42:43.285Z,2.00
2018-09-25T21:45:18.474Z,1.77
2018-09-25T21:47:53.534Z,1.77
2018-09-25T21:50:28.362Z,1.50
2018-09-25T21:53:03.181Z,1.40
2018-09-25T21:55:38.425Z,2.03
2018-09-25T21:58:13.098Z,1.30
2018-09-25T22:00:47.661Z,1.53
2018-09-25T22:03:22.358Z,1.57
2018-09-25T22:05:57.320Z,1.37
2018-09-25T22:08:32.011Z,2.13
2018-09-25T22:11:06.654Z,1.90
2018-09-25T22:16:23.966Z,1.83
2018-09-25T22:18:58.456Z,1.50
2018-09-25T22:21:34.465Z,1.27
2018-09-25T22:24:09.117Z,1.50
2018-09-25T22:26:43.615Z,1.83
2018-09-25T22:29:18.473Z,1.40
2018-09-25T22:35:15.720Z,1.77
2018-09-25T22:37:50.423Z,1.50
2018-09-25T22:40:25.009Z,1.37
2018-09-25T22:43:01.489Z,1.90
2018-09-25T22:45:36.717Z,1.50
2018-09-25T22:48:12.764Z,1.87
2018-09-25T22:50:47.316Z,1.50
2018-09-25T22:53:25.807Z,1.70
2018-09-25T22:56:00.370Z,1.50
2018-09-25T22:58:35.270Z,1.17
2018-09-25T23:01:11.022Z,1.60
2018-09-25T23:03:45.753Z,1.70
2018-09-25T23:06:20.526Z,1.70
2018-09-25T23:08:55.246Z,1.50
2018-09-25T23:11:30.219Z,1.70
2018-09-25T23:14:04.877Z,1.50
2018-09-25T23:16:39.497Z,1.77
2018-09-25T23:22:02.764Z,1.47
2018-09-25T23:24:37.413Z,1.60
2018-09-25T23:27:12.283Z,1.63
2018-09-25T23:29:47.137Z,1.60
2018-09-25T23:32:21.807Z,1.77
2018-09-25T23:34:56.436Z,2.20
2018-09-25T23:37:32.236Z,1.57
2018-09-25T23:40:07.337Z,1.70
2018-09-25T23:49:34.860Z,1.30
2018-09-25T23:57:36.814Z,1.43
